< < Back
Terminal Aerodrome Forecast


Current Version              Previous Versions:   1  2  3  4  5  6  7  8  9  

Terminal Aerodrome Forecast

367
FTUS42 KFFC 090523
TAFMCN
TAF
KMCN 090523Z 0906/1006 31008KT P6SM SCT050 BKN100
     FM091100 29010G18KT P6SM SCT040 BKN070
     FM091800 29014G24KT P6SM BKN040
     FM100000 28009KT P6SM SCT060=

Latest METAR

761
SAUS80 KWBC 091600
MTRMCN
METAR KMCN 091553Z 28015G29KT 10SM OVC055 04/M08 A2991 RMK AO2 PK WND
29029/1507 SLP128 T00441078


USA.gov is the U.S. government's official web portal to all federal, state and local government web resources and services.